Weather at Cochin International Airport

Public forecast

Using degrees Celsius for public forecast. Weather courtesy of forecast.io.

Current aviation weather report (METAR) for Cochin International Airport

Report is more than 6 hours old.

2022/11/14 15:30 (retrieved 2 years ago)

VOCI 141530Z 10005KT 3000 -RA FEW008 SCT012 OVC080 24/24 Q1013 NOSIG

Aviation forecast (TAF) for Cochin International Airport

Forecast is more than 12 hours old.

2023/02/22 18:00 (retrieved 1 year ago)

TAF VOCI 221700Z 2218/2324 10005KT 3000 BR NSC TEMPO 2222/2302 00000KT 2000 BR FEW015 BECMG 2303/2305 22005KT 5000 HZ NSC TEMPO 2310/2312 28010KT 6000 NSC BECMG 2314/2316 10005KT 4000 BR FEW015 TEMPO 2322/2324 10005KT 2000 BR FEW015